JP Observations

RJAA 220730Z 32003KT 270V350 9999 FEW010 SCT110 BKN/// 25/21 Q1009 NOSIG RMK 1CU010 3AC110 A2980 RJBB 220730Z 27005KT 9999 FEW025 SCT045 BKN/// 27/20 Q1012 NOSIG RJCC 220730Z VRB02KT 9999 FEW015 SCT040 BKN050 18/12 Q1011 RMK 1ST015 3CU040 7CU050 A2987 RJFF 220730Z 30005KT 250V350 9999 FEW035 SCT/// 27/18 Q1014 NOSIG RMK 1CU035 A2994 RJGG 220730Z 30022KT 9999 FEW020 26/19 Q1010 NOSIG RJTT 220730Z 10004KT 9999 FEW010 SCT100 BKN/// 24/21 Q1008 BECMG 04005KT RMK 1CU010 3AC100 A2979 ROAH 220730Z 09008KT 050V140 9999 SHRA SCT020 FEW025CB BKN060 29/24 Q1012 RMK 4CU020 2CB025 5SC060 A2991 CB 6KM E STNR RJSH 220722Z 11010KT 3100 -RA BR FEW004 BKN006 OVC010 18/17 Q1010 RMK 2ST004 5ST006 8ST010 A2985 ROAH 220713Z 03007KT 340V070 9999 +SHRA SCT020 FEW025CB BKN060 30/24 Q1012 RMK 3CU020 2CB025 5SC060 A2991 CB 6KM E STNR RJAA 220700Z VRB02KT 9999 FEW010 SCT017 BKN/// 26/21 Q1008 BECMG 35005KT RMK 1CU010 3CU017 A2979 RJAF 220700Z 01008KT 9999 FEW025 SCT/// 24/19 Q1012 RJAH 220700Z VRB02KT 9999 FEW030 BKN120 25/22 Q1008 RJAW 220700Z 10013KT 9999 -SHRA SCT010 29/26 Q1013 RMK 4CU010 A2993 RJBB 220700Z 27004KT 9999 FEW030 SCT/// 27/20 Q1012 NOSIG RJBD 220700Z 34012KT 9999 FEW025 SCT/// 29/20 Q1011 RJBE 220700Z 19008KT 9999 FEW030 SCT050 BKN/// 26/22 Q1012 RJBT 220700Z 36005KT 320V030 9999 FEW025 BKN180 BKN/// 23/23 Q1013 RJCB 220700Z 32003KT 290V360 4000 -RA BR FEW003 SCT004 BKN012 12/11 Q1016 RJCC 220700Z VRB02KT 9999 FEW015 SCT030 BKN050 18/12 Q1011 RMK 1ST015 3CU030 7CU050 A2987 RJCH 220700Z 11023KT 6000 -SHRA FEW004 BKN010 BKN020 17/16 Q1010 RJCK 220700Z 05007KT 020V080 9999 -RA FEW005 BKN009 BKN015 13/12 Q1016 RJCM 220700Z 07003KT 9999 -SHRA FEW010 SCT040 BKN050 14/11 Q1016 RJCN 220700Z 06007KT 9999 -SHRA FEW015 BKN045 14/12 Q1017 RJCW 220700Z 10018KT 9999 -SHRA FEW040 SCT080 BKN090 16/10 Q1013 RJDC 220700Z 26013KT 9999 FEW035 BKN/// 27/21 Q1013 RJDT 220700Z 31005KT 260V360 9999 FEW020 BKN/// 24/20 Q1014 RJEB 220700Z 12010KT 9999 -SHRA FEW020 BKN080 BKN090 15/11 Q1015 RJEC 220700Z 17004KT 9999 -SHRA FEW006 SCT020 BKN070 13/11 Q1013 RJFF 220700Z 32006KT 280V040 9999 FEW035 SCT/// 27/18 Q1013 NOSIG RMK 1CU035 A2994 RJFG 220700Z 29011KT 9999 FEW015 BKN/// 26/20 Q1014 RJFK 220700Z 34007KT 9999 FEW035 SCT120 BKN/// 27/20 Q1013 RMK 1CU035 3AC120 A2993 VOLCANIC ASH CLOUD SE-S RJFM 220700Z 09006KT 9999 FEW020 BKN023 BKN/// 27/23 Q1012 RJFO 220700Z 34007KT 9999 FEW030 SCT170 BKN/// 28/18 Q1012 RJFR 220700Z 32009KT 9999 FEW030 BKN/// 27/18 Q1013 RJFS 220700Z 02004KT 350V080 9999 FEW030 SCT/// 30/17 Q1013 RJFT 220700Z 33005KT 290V360 9999 FEW035 BKN/// 28/18 Q1014 RJFU 220700Z 31011KT 9999 FEW035 BKN/// 29/19 Q1013 RJGG 220700Z 30020KT 9999 FEW020 27/20 Q1010 NOSIG RJKA 220700Z 04009KT 360V060 9999 FEW025 30/24 Q1013 RJNK 220700Z 29008KT 9999 FEW020 25/18 Q1013 RJNT 220700Z 29009KT 270V330 9999 FEW030 SCT/// 26/19 Q1012 RJNW 220700Z 29007KT 240V320 9999 FEW020 SCT025 BKN/// 23/18 Q1013 RJOA 220700Z 33004KT 300V010 9999 FEW035 BKN/// 26/14 Q1014 RJOB 220700Z VRB03KT 9999 FEW020 BKN/// 27/17 Q1013 RJOC 220700Z 28005KT 250V310 9999 FEW025 SCT/// 26/18 Q1013 RJOH 220700Z 30005KT 260V330 9999 FEW030 BKN230 26/15 Q1013 RJOI 220655Z 16008KT 9999 FEW030 BKN180 BKN200 28/21 A2991 RMK SLP128 T02780206 RJOK 220700Z 34013KT 9999 FEW025 BKN/// 30/16 Q1011 RJOM 220700Z 25008KT 9999 FEW025 BKN/// 26/22 Q1012 RJOO 220700Z 33006KT 300V360 9999 FEW025 SCT060 BKN/// 29/17 Q1012 RJOO 220700Z 33006KT 300V360 9999 FEW025 SCT060 BKN/// 29/17 Q1012 RMK 1CU025 3SC060 A2988 RJOR 220700Z 32007KT 9999 FEW020 SCT030 BKN/// 25/19 Q1013 RJOT 220700Z 29004KT 250V350 9999 FEW030 BKN/// 27/21 Q1013 RJOW 220700Z 31006KT 9999 FEW015 BKN/// 25/19 Q1014 RJOY 220700Z 32004KT 280V050 9999 FEW030 SCT045 BKN060 28/19 Q1012 RJSA 220700Z VRB01KT 9999 FEW010 BKN040 19/17 Q1008 RJSC 220700Z 32003KT 9999 FEW020 SCT040 BKN050 23/20 Q1009 RJSF 220700Z 34012KT 9999 FEW030 BKN/// 24/18 Q1011 RJSI 220700Z 36005KT 9999 FEW015 SCT030 BKN045 21/18 Q1009 RJSK 220700Z VRB03KT 9999 -SHRA FEW001 SCT009 BKN010 22/20 Q1009 RJSN 220700Z 26011KT 9999 FEW020 SCT030 25/19 Q1011 RJSR 220700Z 01003KT 320V100 9999 FEW002 SCT010 BKN015 18/18 Q1008 RJSS 220700Z 05006KT 9999 FEW015 SCT030 BKN/// 24/19 Q1008 RJSY 220700Z 26021KT 9999 VCSH FEW015 SCT050 24/19 Q1010 RJTF 220700Z VRB01KT 9999 FEW030 BKN/// 26/20 Q1008 RJTI 220700Z 16005KT 9999 FEW020 SCT100 BKN/// 24/21 Q1008 RJTO 220700Z 21006KT 9999 FEW010 SCT015 BKN/// 26/23 Q1008 RJTT 220700Z 11004KT 9999 FEW010 BKN/// 24/21 Q1008 NOSIG RMK 1CU010 A2978 ROAH 220700Z 36007KT 330V060 9999 SHRA SCT020 FEW025CB BKN060 30/24 Q1012 ROAH 220700Z 36007KT 330V060 9999 SHRA SCT020 FEW025CB BKN060 30/24 Q1012 RMK 3CU020 2CB025 5SC060 A2990 CB 6KM E STNR ROIG 220700Z 32005KT 9999 VCSH FEW018 SCT023 BKN080 28/26 Q1012 ROMY 220700Z 18006KT 140V230 9999 -SHRA SCT012 FEW020TCU BKN045 26/25 Q1013 RORS 220700Z 12009KT 9999 -SHRA FEW016 FEW025TCU BKN050 28/24 Q1012 ROYN 220700Z AUTO 01003KT 9999 NCD 30/26 Q1012 RJNS 220700Z 26015KT 9999 FEW020 BKN/// 27/21 Q1008 ROTM 220656Z 08007KT 8000 SHRA BR FEW020 SCT030 BKN056 29/25 A2994 RMK SHRAB50 SLP121 STNPR29640 P0000 T02890250